createdAt,value
2022-11-14T00:00:51.721Z,45.85
2022-11-14T00:03:38.203Z,42.70
2022-11-14T00:06:26.138Z,31.17
2022-11-14T00:09:12.390Z,58.95
2022-11-14T00:11:58.873Z,53.08
2022-11-14T00:14:45.322Z,58.70
2022-11-14T00:17:31.873Z,48.63
2022-11-14T00:20:18.227Z,29.35
2022-11-14T00:23:05.830Z,34.30
2022-11-14T00:25:52.930Z,31.70
2022-11-14T00:28:39.273Z,43.20
2022-11-14T00:31:25.421Z,53.75
2022-11-14T00:34:11.879Z,47.20
2022-11-14T00:36:58.551Z,34.42
2022-11-14T00:39:46.371Z,41.13
2022-11-14T00:42:32.768Z,36.45
2022-11-14T00:45:19.013Z,34.58
2022-11-14T00:48:05.838Z,36.45
2022-11-14T00:50:52.006Z,32.10
2022-11-14T00:53:38.529Z,34.15
2022-11-14T00:56:26.559Z,31.92
2022-11-14T00:59:13.469Z,35.60
2022-11-14T01:01:59.533Z,32.17
2022-11-14T01:04:45.955Z,33.08
2022-11-14T01:07:32.485Z,32.75
2022-11-14T01:10:18.785Z,34.05
2022-11-14T01:13:06.725Z,31.20
2022-11-14T01:15:54.876Z,32.40
2022-11-14T01:18:42.117Z,31.27
2022-11-14T01:21:28.281Z,34.80
2022-11-14T01:24:14.829Z,31.70
2022-11-14T01:27:01.089Z,33.08
2022-11-14T01:29:49.592Z,32.10
2022-11-14T01:32:36.213Z,32.33
2022-11-14T01:35:22.888Z,33.53
2022-11-14T01:38:14.704Z,32.30
2022-11-14T01:41:01.274Z,32.45
2022-11-14T01:43:47.528Z,34.47
2022-11-14T01:46:38.246Z,35.42
2022-11-14T01:49:27.781Z,32.97
2022-11-14T01:52:16.963Z,36.83
2022-11-14T01:55:07.374Z,35.72
2022-11-14T01:57:53.826Z,35.47
2022-11-14T02:00:41.013Z,34.00
2022-11-14T02:03:28.454Z,38.10
2022-11-14T02:06:20.494Z,37.95
2022-11-14T02:09:08.723Z,40.05
2022-11-14T02:11:58.027Z,41.13
2022-11-14T02:14:46.358Z,44.20
2022-11-14T02:17:33.548Z,43.10
2022-11-14T02:20:22.985Z,44.45
2022-11-14T02:23:09.754Z,43.13
2022-11-14T02:25:56.651Z,44.05
2022-11-14T02:28:43.055Z,48.10
2022-11-14T02:31:29.322Z,46.78
2022-11-14T02:34:19.770Z,48.13
2022-11-14T02:37:07.926Z,48.00
2022-11-14T02:39:54.301Z,46.15
2022-11-14T02:42:40.782Z,46.17
2022-11-14T02:45:27.986Z,45.25
2022-11-14T02:48:14.122Z,76.15
2022-11-14T02:51:00.726Z,40.90
2022-11-14T02:53:48.715Z,44.28
2022-11-14T02:56:34.964Z,41.63
2022-11-14T02:59:21.309Z,45.15
2022-11-14T03:02:07.913Z,43.65
2022-11-14T03:04:54.745Z,39.65
2022-11-14T03:07:41.226Z,41.75
2022-11-14T03:10:28.835Z,40.65
2022-11-14T03:13:15.292Z,39.38
2022-11-14T03:16:07.033Z,40.08
2022-11-14T03:18:53.285Z,41.17
2022-11-14T03:21:39.685Z,37.30
2022-11-14T03:24:26.184Z,43.40
2022-11-14T03:27:14.025Z,41.55
2022-11-14T03:30:00.546Z,39.75
2022-11-14T03:32:47.147Z,40.47
2022-11-14T03:35:33.584Z,41.92
2022-11-14T03:38:22.924Z,45.70
2022-11-14T03:41:09.553Z,42.50
2022-11-14T03:43:57.127Z,49.22
2022-11-14T03:46:43.557Z,41.50
2022-11-14T03:49:29.718Z,46.13
2022-11-14T03:52:16.208Z,46.70
2022-11-14T03:55:02.697Z,45.58
2022-11-14T03:57:49.130Z,38.78
2022-11-14T04:00:37.332Z,45.35
2022-11-14T04:03:23.807Z,39.67
2022-11-14T04:06:10.176Z,43.20
2022-11-14T04:08:57.326Z,42.58
2022-11-14T04:11:43.452Z,43.72
2022-11-14T04:14:29.870Z,40.22
2022-11-14T04:17:17.536Z,44.75
2022-11-14T04:20:04.171Z,36.63
2022-11-14T04:22:50.577Z,36.83
2022-11-14T04:25:36.672Z,35.15
2022-11-14T04:28:23.117Z,34.60
2022-11-14T04:31:09.565Z,38.17
2022-11-14T04:33:57.319Z,35.88
2022-11-14T04:36:44.018Z,34.10
2022-11-14T04:39:30.308Z,35.63
2022-11-14T04:42:16.676Z,34.13
2022-11-14T04:45:03.284Z,35.58
2022-11-14T04:47:49.895Z,34.75
2022-11-14T04:50:37.953Z,34.17
2022-11-14T04:53:24.911Z,36.90
2022-11-14T04:56:11.620Z,34.45
2022-11-14T04:58:58.205Z,32.63
2022-11-14T05:01:44.764Z,31.00
2022-11-14T05:04:31.040Z,34.22
2022-11-14T05:07:18.873Z,35.05
2022-11-14T05:10:06.220Z,33.83
2022-11-14T05:12:54.305Z,31.65
2022-11-14T05:15:40.869Z,30.35
2022-11-14T05:18:27.672Z,31.38
2022-11-14T05:21:14.959Z,34.47
2022-11-14T05:24:02.708Z,30.88
2022-11-14T05:26:49.294Z,35.63
2022-11-14T05:29:35.721Z,30.85
2022-11-14T05:32:22.187Z,30.38
2022-11-14T05:35:09.687Z,28.52
2022-11-14T05:37:59.949Z,27.83
2022-11-14T05:40:47.800Z,27.38
2022-11-14T05:43:33.808Z,26.33
2022-11-14T05:46:20.160Z,27.55
2022-11-14T05:49:06.597Z,23.13
2022-11-14T05:51:53.152Z,24.65
2022-11-14T05:54:39.773Z,27.20
2022-11-14T05:57:27.676Z,24.65
2022-11-14T06:00:15.136Z,23.80
2022-11-14T06:03:01.784Z,25.25
2022-11-14T06:05:47.876Z,23.40
2022-11-14T06:08:35.380Z,24.35
2022-11-14T06:11:22.346Z,23.38
2022-11-14T06:14:11.254Z,26.40
2022-11-14T06:16:57.540Z,24.15
2022-11-14T06:19:43.971Z,25.88
2022-11-14T06:22:30.066Z,24.90
2022-11-14T06:25:16.605Z,28.05
2022-11-14T06:28:02.977Z,31.40
2022-11-14T06:30:50.790Z,34.38
2022-11-14T06:33:38.472Z,35.38
2022-11-14T06:36:25.105Z,39.05
2022-11-14T06:39:11.567Z,34.97
2022-11-14T06:41:58.419Z,39.97
2022-11-14T06:44:45.067Z,41.85
2022-11-14T06:47:33.393Z,36.70
2022-11-14T06:50:19.866Z,36.80
2022-11-14T06:53:06.154Z,38.08
2022-11-14T06:55:56.955Z,41.75
2022-11-14T06:58:45.541Z,35.88
2022-11-14T07:01:31.740Z,37.75
2022-11-14T07:04:19.614Z,37.10
2022-11-14T07:07:07.004Z,39.25
2022-11-14T07:09:54.270Z,30.88
2022-11-14T07:12:40.752Z,32.90
2022-11-14T07:15:27.281Z,30.92
2022-11-14T07:18:13.628Z,33.90
2022-11-14T07:21:03.407Z,33.22
2022-11-14T07:23:49.843Z,35.88
2022-11-14T07:26:36.245Z,39.42
2022-11-14T07:29:22.673Z,34.40
2022-11-14T07:32:09.293Z,38.05
2022-11-14T07:35:00.759Z,39.72
2022-11-14T07:37:50.568Z,44.92
2022-11-14T07:40:37.319Z,46.45
2022-11-14T07:43:24.168Z,45.50
2022-11-14T07:46:13.131Z,44.80
2022-11-14T07:48:59.156Z,52.20
2022-11-14T07:51:45.689Z,47.40
2022-11-14T07:54:34.283Z,40.75
2022-11-14T07:57:20.345Z,39.22
2022-11-14T08:00:07.695Z,38.25
2022-11-14T08:02:54.321Z,31.67
2022-11-14T08:05:40.752Z,31.83
2022-11-14T08:08:27.428Z,32.47
2022-11-14T08:11:31.674Z,33.25
2022-11-14T08:14:21.308Z,34.10
2022-11-14T08:17:07.987Z,32.55
2022-11-14T08:19:55.002Z,31.77
2022-11-14T08:22:41.153Z,31.80
2022-11-14T08:25:27.326Z,34.55
2022-11-14T08:28:15.287Z,29.20
2022-11-14T08:31:02.411Z,30.80
2022-11-14T08:33:50.415Z,32.20
2022-11-14T08:36:36.628Z,30.27
2022-11-14T08:39:23.447Z,33.97
2022-11-14T08:42:09.983Z,38.88
2022-11-14T08:44:57.653Z,34.20
2022-11-14T08:47:44.132Z,37.33
2022-11-14T08:50:31.826Z,35.20
2022-11-14T08:53:18.261Z,34.22
2022-11-14T08:56:05.560Z,35.00
2022-11-14T08:58:52.081Z,32.88
2022-11-14T09:01:39.957Z,29.80
2022-11-14T09:04:26.169Z,33.30
2022-11-14T09:07:13.003Z,27.00
2022-11-14T09:09:59.704Z,30.10
2022-11-14T09:12:45.997Z,28.65
2022-11-14T09:15:33.699Z,28.55
2022-11-14T09:18:21.477Z,26.00
2022-11-14T09:21:09.841Z,26.35
2022-11-14T09:24:00.555Z,28.83
2022-11-14T09:26:55.019Z,29.10
2022-11-14T09:29:42.746Z,26.77
2022-11-14T09:32:29.227Z,30.75
2022-11-14T09:35:17.637Z,27.55
2022-11-14T09:38:05.681Z,27.45
2022-11-14T09:41:03.354Z,27.77
2022-11-14T09:44:17.747Z,26.60
2022-11-14T09:47:16.664Z,25.98
2022-11-14T09:50:13.888Z,27.77
2022-11-14T09:53:06.463Z,24.13
2022-11-14T09:55:53.213Z,25.90
2022-11-14T09:58:39.302Z,22.08
2022-11-14T10:01:36.216Z,24.60
2022-11-14T10:04:33.025Z,29.13
2022-11-14T10:07:29.789Z,24.60
2022-11-14T10:10:38.883Z,28.27
2022-11-14T10:13:46.950Z,24.90
2022-11-14T10:16:44.495Z,23.35
2022-11-14T10:19:42.403Z,22.02
2022-11-14T10:22:46.761Z,25.30
2022-11-14T10:25:45.814Z,23.13
2022-11-14T10:28:42.989Z,23.05
2022-11-14T10:31:43.306Z,25.52
2022-11-14T10:34:35.403Z,23.95
2022-11-14T10:37:26.830Z,22.08
2022-11-14T10:40:20.316Z,22.85
2022-11-14T10:43:19.460Z,22.85
2022-11-14T10:46:11.343Z,22.23
2022-11-14T10:49:00.360Z,20.25
2022-11-14T10:51:51.106Z,20.00
2022-11-14T10:54:44.002Z,25.08
2022-11-14T10:57:31.050Z,19.33
2022-11-14T11:00:22.896Z,20.95
2022-11-14T11:03:09.185Z,19.77
2022-11-14T11:05:57.483Z,19.77
2022-11-14T11:09:00.669Z,20.67
2022-11-14T11:11:56.761Z,21.15
2022-11-14T11:14:43.681Z,20.17
2022-11-14T11:17:38.457Z,19.70
2022-11-14T11:20:33.899Z,19.30
2022-11-14T11:23:25.164Z,21.88
2022-11-14T11:26:18.707Z,23.20
2022-11-14T11:29:08.826Z,18.98
2022-11-14T11:31:56.531Z,21.55
2022-11-14T11:34:44.221Z,21.40
2022-11-14T11:37:34.011Z,19.23
2022-11-14T11:40:22.459Z,19.55
2022-11-14T11:46:27.232Z,21.67
2022-11-14T11:49:19.303Z,20.70
2022-11-14T11:52:14.085Z,19.75
2022-11-14T11:55:06.189Z,20.08
2022-11-14T11:58:00.860Z,20.25
2022-11-14T12:00:47.041Z,21.08
2022-11-14T12:03:33.806Z,25.30
2022-11-14T12:06:24.710Z,18.88
2022-11-14T12:09:19.002Z,20.55
2022-11-14T12:12:14.049Z,21.90
2022-11-14T12:15:12.220Z,21.58
2022-11-14T12:18:21.327Z,21.30
2022-11-14T12:21:13.377Z,18.85
2022-11-14T12:24:26.757Z,20.67
2022-11-14T12:27:24.490Z,19.45
2022-11-14T12:30:15.115Z,19.30
2022-11-14T12:33:05.744Z,20.20
2022-11-14T12:35:54.917Z,19.58
2022-11-14T12:38:49.109Z,16.38
2022-11-14T12:41:40.126Z,17.40
2022-11-14T12:44:36.120Z,19.38
2022-11-14T12:47:24.553Z,17.35
2022-11-14T12:50:41.861Z,16.67
2022-11-14T12:53:42.801Z,17.95
2022-11-14T12:57:09.922Z,19.95
2022-11-14T13:00:05.118Z,18.65
2022-11-14T13:03:11.950Z,17.67
2022-11-14T13:06:02.073Z,18.00
2022-11-14T13:09:16.196Z,15.60
2022-11-14T13:12:47.272Z,17.63
2022-11-14T13:15:52.835Z,18.20
2022-11-14T13:19:10.110Z,15.32
2022-11-14T13:22:36.445Z,17.52
2022-11-14T13:25:24.621Z,16.70
2022-11-14T13:28:48.683Z,17.40
2022-11-14T13:31:47.515Z,14.48
2022-11-14T13:34:47.176Z,13.32
2022-11-14T13:37:49.583Z,15.73
2022-11-14T13:40:43.519Z,13.07
2022-11-14T13:43:47.946Z,13.43
2022-11-14T13:46:51.395Z,12.55
2022-11-14T13:49:54.994Z,12.45
2022-11-14T13:52:44.621Z,11.27
2022-11-14T13:55:39.111Z,12.77
2022-11-14T13:58:37.674Z,10.55
2022-11-14T14:01:40.079Z,12.73
2022-11-14T14:04:45.988Z,11.55
2022-11-14T14:07:47.966Z,11.32
2022-11-14T14:10:43.034Z,10.82
2022-11-14T14:13:47.945Z,10.73
2022-11-14T14:16:42.682Z,15.07
2022-11-14T14:19:42.689Z,11.95
2022-11-14T14:22:37.475Z,16.02
2022-11-14T14:25:31.590Z,11.90
2022-11-14T14:28:25.886Z,13.38
2022-11-14T14:31:15.577Z,13.55
2022-11-14T14:34:02.171Z,12.40
2022-11-14T14:36:54.143Z,12.25
2022-11-14T14:39:40.160Z,17.65
2022-11-14T14:42:33.673Z,12.98
2022-11-14T14:45:23.353Z,12.80
2022-11-14T14:48:15.231Z,14.70
2022-11-14T14:51:05.352Z,17.33
2022-11-14T14:53:54.290Z,14.00
2022-11-14T14:56:41.041Z,19.55
2022-11-14T14:59:28.732Z,17.23
2022-11-14T15:02:18.993Z,14.10
2022-11-14T15:05:06.705Z,13.35
2022-11-14T15:07:54.875Z,16.00
2022-11-14T15:10:43.193Z,17.00
2022-11-14T15:13:31.586Z,15.10
2022-11-14T15:16:18.354Z,17.15
2022-11-14T15:19:05.938Z,16.75
2022-11-14T15:22:21.718Z,17.58
2022-11-14T15:25:20.484Z,20.00
2022-11-14T15:28:16.661Z,17.75
2022-11-14T15:31:05.019Z,17.98
2022-11-14T15:34:06.526Z,14.40
2022-11-14T15:37:23.405Z,13.15
2022-11-14T15:40:17.890Z,15.15
2022-11-14T15:43:38.998Z,15.13
2022-11-14T15:46:35.642Z,19.45
2022-11-14T15:49:25.126Z,15.75
2022-11-14T15:52:20.866Z,16.35
2022-11-14T15:55:14.750Z,17.73
2022-11-14T15:58:26.712Z,16.20
2022-11-14T16:01:17.961Z,13.85
2022-11-14T16:04:04.834Z,15.48
2022-11-14T16:06:51.161Z,15.40
2022-11-14T16:09:38.005Z,14.38
2022-11-14T16:12:24.363Z,16.20
2022-11-14T16:15:11.657Z,14.95
2022-11-14T16:17:59.407Z,15.35
2022-11-14T16:20:45.618Z,12.55
2022-11-14T16:23:31.975Z,16.83
2022-11-14T16:26:18.722Z,17.70
2022-11-14T16:29:05.363Z,15.23
2022-11-14T16:31:52.461Z,14.95
2022-11-14T16:34:40.248Z,14.38
2022-11-14T16:37:27.468Z,15.38
2022-11-14T16:40:15.651Z,16.65
2022-11-14T16:43:01.679Z,17.17
2022-11-14T16:45:48.480Z,17.77
2022-11-14T16:48:34.881Z,14.13
2022-11-14T16:51:47.054Z,16.27
2022-11-14T16:54:28.489Z,17.50
2022-11-14T16:57:15.153Z,20.35
2022-11-14T17:00:01.779Z,16.92
2022-11-14T17:02:48.228Z,17.20
2022-11-14T17:05:35.025Z,16.13
2022-11-14T17:08:22.682Z,14.85
2022-11-14T17:11:10.303Z,14.80
2022-11-14T17:13:57.283Z,17.35
2022-11-14T17:16:43.533Z,18.25
2022-11-14T17:19:30.706Z,18.08
2022-11-14T17:22:18.468Z,18.42
2022-11-14T17:25:06.912Z,15.15
2022-11-14T17:27:53.113Z,16.52
2022-11-14T17:30:41.948Z,20.25
2022-11-14T17:33:29.213Z,16.83
2022-11-14T17:36:16.149Z,15.90
2022-11-14T17:39:02.554Z,16.95
2022-11-14T17:41:50.498Z,15.40
2022-11-14T17:44:37.079Z,17.83
2022-11-14T17:47:23.062Z,16.40
2022-11-14T17:50:10.484Z,15.88
2022-11-14T17:52:57.005Z,14.52
2022-11-14T17:55:43.340Z,16.75
2022-11-14T17:58:32.971Z,14.55
2022-11-14T18:01:22.515Z,16.10
2022-11-14T18:04:08.834Z,20.17
2022-11-14T18:06:55.752Z,13.43
2022-11-14T18:09:42.285Z,14.32
2022-11-14T18:12:28.678Z,14.95
2022-11-14T18:15:16.918Z,16.42
2022-11-14T18:18:03.167Z,16.02
2022-11-14T18:20:49.505Z,16.42
2022-11-14T18:23:36.517Z,18.40
2022-11-14T18:26:27.433Z,16.65
2022-11-14T18:29:15.534Z,19.20
2022-11-14T18:32:04.025Z,19.80
2022-11-14T18:34:50.482Z,16.13
2022-11-14T18:37:36.788Z,15.82
2022-11-14T18:40:23.016Z,16.85
2022-11-14T18:43:09.674Z,16.85
2022-11-14T18:45:56.380Z,18.30
2022-11-14T18:48:45.888Z,12.98
2022-11-14T18:51:33.446Z,16.00
2022-11-14T18:54:20.033Z,17.90
2022-11-14T18:57:07.031Z,18.88
2022-11-14T18:59:53.185Z,16.70
2022-11-14T19:02:39.895Z,13.18
2022-11-14T19:05:27.803Z,14.48
2022-11-14T19:08:14.222Z,15.85
2022-11-14T19:11:04.593Z,14.77
2022-11-14T19:13:50.995Z,18.23
2022-11-14T19:16:38.739Z,20.02
2022-11-14T19:19:26.218Z,18.92
2022-11-14T19:22:14.162Z,14.88
2022-11-14T19:25:02.561Z,15.65
2022-11-14T19:27:51.443Z,16.75
2022-11-14T19:30:38.306Z,19.17
2022-11-14T19:33:24.726Z,18.70
2022-11-14T19:36:14.473Z,14.60
2022-11-14T19:39:02.846Z,20.73
2022-11-14T19:41:49.737Z,18.58
2022-11-14T19:44:35.968Z,18.10
2022-11-14T19:47:22.574Z,16.20
2022-11-14T19:50:10.178Z,15.35
2022-11-14T19:52:56.351Z,15.25
2022-11-14T19:55:44.001Z,17.50
2022-11-14T19:58:30.553Z,14.52
2022-11-14T20:01:19.529Z,15.27
2022-11-14T20:04:07.425Z,17.63
2022-11-14T20:06:54.392Z,15.98
2022-11-14T20:09:40.899Z,15.35
2022-11-14T20:12:28.707Z,15.02
2022-11-14T20:15:15.189Z,26.40
2022-11-14T20:18:01.503Z,16.17
2022-11-14T20:20:48.198Z,19.35
2022-11-14T20:23:35.850Z,15.45
2022-11-14T20:26:23.166Z,17.23
2022-11-14T20:29:10.997Z,50.53
2022-11-14T20:31:57.508Z,27.30
2022-11-14T20:34:44.305Z,18.23
2022-11-14T20:37:30.842Z,18.10
2022-11-14T20:40:17.416Z,15.27
2022-11-14T20:43:04.101Z,16.50
2022-11-14T20:45:59.944Z,21.52
2022-11-14T20:48:47.772Z,22.98
2022-11-14T20:51:36.606Z,20.67
2022-11-14T20:54:25.105Z,18.17
2022-11-14T20:57:11.974Z,17.15
2022-11-14T20:59:58.277Z,32.13
2022-11-14T21:02:46.004Z,17.52
2022-11-14T21:05:32.361Z,16.42
2022-11-14T21:08:18.889Z,17.08
2022-11-14T21:11:07.401Z,17.15
2022-11-14T21:13:59.683Z,16.60
2022-11-14T21:16:46.327Z,17.13
2022-11-14T21:19:33.845Z,17.17
2022-11-14T21:22:20.239Z,16.88
2022-11-14T21:25:07.498Z,16.65
2022-11-14T21:27:54.028Z,15.73
2022-11-14T21:30:40.343Z,14.85
2022-11-14T21:33:27.179Z,15.57
2022-11-14T21:36:43.114Z,16.40
2022-11-14T21:39:22.112Z,18.45
2022-11-14T21:42:11.017Z,19.48
2022-11-14T21:45:00.623Z,17.25
2022-11-14T21:47:46.644Z,16.85
2022-11-14T21:50:33.879Z,16.30
2022-11-14T21:53:21.617Z,15.63
2022-11-14T21:56:09.294Z,17.10
2022-11-14T21:59:12.758Z,14.52
2022-11-14T22:02:16.645Z,14.80
2022-11-14T22:05:03.389Z,19.20
2022-11-14T22:07:49.905Z,15.43
2022-11-14T22:10:37.361Z,13.05
2022-11-14T22:13:23.592Z,13.55
2022-11-14T22:16:11.470Z,15.27
2022-11-14T22:19:04.482Z,15.40
2022-11-14T22:21:51.801Z,16.10
2022-11-14T22:24:38.061Z,13.52
2022-11-14T22:27:25.762Z,13.60
2022-11-14T22:30:12.948Z,13.23
2022-11-14T22:33:00.400Z,14.15
2022-11-14T22:35:47.154Z,15.30
2022-11-14T22:38:36.517Z,16.63
2022-11-14T22:41:29.126Z,16.55
2022-11-14T22:44:19.634Z,13.38
2022-11-14T22:47:06.219Z,11.57
2022-11-14T22:49:52.474Z,14.32
2022-11-14T22:52:39.874Z,15.70
2022-11-14T22:55:26.373Z,13.80
2022-11-14T22:58:12.375Z,16.98
2022-11-14T23:01:00.475Z,13.82
2022-11-14T23:03:48.303Z,13.10
2022-11-14T23:06:35.403Z,13.55
2022-11-14T23:09:21.797Z,14.70
2022-11-14T23:12:08.096Z,12.80
2022-11-14T23:14:54.197Z,13.15
2022-11-14T23:17:41.687Z,14.93
2022-11-14T23:20:28.718Z,10.75
2022-11-14T23:23:15.763Z,11.75
2022-11-14T23:26:05.528Z,11.77
2022-11-14T23:28:51.793Z,10.88
2022-11-14T23:31:37.947Z,10.70
2022-11-14T23:34:25.542Z,12.63
2022-11-14T23:37:11.777Z,11.40
2022-11-14T23:39:57.790Z,13.80
2022-11-14T23:42:43.990Z,11.77
2022-11-14T23:45:30.294Z,12.70
2022-11-14T23:48:16.844Z,12.30
2022-11-14T23:51:04.805Z,13.20
2022-11-14T23:53:51.899Z,10.70
2022-11-14T23:56:38.456Z,13.70
2022-11-14T23:59:25.519Z,10.95
